METAR Data
IDs: Format: Raw Decoded Include TAF

Data at: 1906 UTC 21 Nov 2018

METAR for:KCRP (Corpus Christi Intl, TX, US)
Text:KCRP 211851Z 04014KT 7SM -RA FEW032 BKN044 OVC050 14/12 A3023 RMK AO2 SLP237 P0001 T01440117
Temperature: 14.4°C ( 58°F)
Dewpoint: 11.7°C ( 53°F) [RH = 84%]
Pressure (altimeter):30.23 inches Hg (1023.8 mb) [Sea level pressure: 1023.7 mb]
Winds:from the NE (40 degrees) at 16 MPH (14 knots; 7.2 m/s)
Visibility: 7 sm ( 11 km)
Ceiling:4400 feet AGL
Clouds: few clouds at 3200 feet AGL, broken clouds at 4400 feet AGL, overcast cloud deck at 5000 feet AGL
Weather:-RA (light rain)